Time;durP1;ratioP1;P1;durP2;ratioP2;P2;SDS_P1;SDS_P2;PMS_P1;PMS_P2;Temp;Humidity;BMP_temperature;BMP_pressure;BME280_temperature;BME280_humidity;BME280_pressure;Samples;Min_cycle;Max_cycle;Signal;HPM_P1;HPM_P2
2023/03/13 00:02:16;;;;;;;5.50;3.50;;;;;;;4.30;71.39;97586.61;105952;1254;61229;-79
2023/03/13 00:04:42;;;;;;;6.20;3.20;;;;;;;4.22;71.79;97600.30;106026;1260;61222;-79
2023/03/13 00:07:09;;;;;;;6.90;3.80;;;;;;;4.16;72.84;97599.37;106030;1254;62238;-80
2023/03/13 00:09:35;;;;;;;7.90;4.50;;;;;;;4.12;73.91;97600.02;106012;1254;61350;-80
2023/03/13 00:12:02;;;;;;;10.50;4.00;;;;;;;4.06;74.22;97591.02;108745;1254;59117;-80
2023/03/13 00:14:28;;;;;;;8.80;4.70;;;;;;;4.02;74.48;97582.02;109262;1254;58903;-80
2023/03/13 00:16:55;;;;;;;7.20;4.90;;;;;;;4.04;76.29;97575.98;106145;1254;61226;-80
2023/03/13 00:19:21;;;;;;;6.70;4.30;;;;;;;3.98;76.14;97582.34;105903;1261;61283;-80
2023/03/13 00:21:48;;;;;;;10.70;3.70;;;;;;;4.01;75.87;97585.80;106007;1258;61373;-79
2023/03/13 00:24:15;;;;;;;5.40;2.40;;;;;;;4.00;76.11;97577.16;105990;1258;61329;-80
2023/03/13 00:26:41;;;;;;;6.60;4.10;;;;;;;4.04;75.97;97580.01;105942;1256;61263;-81
2023/03/13 00:29:08;;;;;;;7.70;3.70;;;;;;;4.04;76.00;97580.21;106035;1258;61328;-79
2023/03/13 00:31:34;;;;;;;7.80;4.60;;;;;;;4.02;75.63;97579.17;106068;1254;61207;-79
2023/03/13 00:34:01;;;;;;;7.20;3.60;;;;;;;4.03;75.43;97582.73;106018;1256;61205;-79
2023/03/13 00:36:32;;;;;;;8.90;5.10;;;;;;;4.03;75.69;97564.28;106228;1258;71437;-79
2023/03/13 00:38:59;;;;;;;7.40;4.10;;;;;;;4.07;75.52;97565.29;106043;1256;62101;-79
2023/03/13 00:41:27;;;;;;;8.70;4.80;;;;;;;4.10;75.54;97562.88;105995;1255;62004;-79
2023/03/13 00:43:53;;;;;;;10.50;5.70;;;;;;;4.11;75.63;97564.34;106018;1254;73056;-78
2023/03/13 00:46:22;;;;;;;9.00;5.10;;;;;;;4.13;75.24;97561.84;105985;1256;61263;-79
2023/03/13 00:48:48;;;;;;;11.00;4.70;;;;;;;4.15;75.21;97551.02;108271;1256;73501;-78
2023/03/13 00:51:15;;;;;;;10.40;4.90;;;;;;;4.19;74.97;97531.34;106045;1260;61334;-78
2023/03/13 00:53:42;;;;;;;9.40;5.50;;;;;;;4.20;74.95;97533.34;106012;1258;61151;-79
2023/03/13 00:56:13;;;;;;;8.20;4.50;;;;;;;4.20;74.81;97537.09;106000;1258;61157;-80
2023/03/13 00:58:41;;;;;;;6.90;4.60;;;;;;;4.21;74.88;97537.42;106009;1258;72150;-78
2023/03/13 01:01:24;;;;;;;7.70;4.80;;;;;;;4.23;74.81;97530.96;109159;1254;71433;-80
2023/03/13 01:03:58;;;;;;;9.00;4.00;;;;;;;4.28;74.87;97525.27;105983;1258;61200;-78
2023/03/13 01:06:26;;;;;;;7.40;4.50;;;;;;;4.31;74.78;97524.60;107807;1254;60065;-80
2023/03/13 01:08:53;;;;;;;5.60;3.80;;;;;;;4.32;74.91;97531.64;106967;1258;74504;-78
2023/03/13 01:11:21;;;;;;;7.50;4.60;;;;;;;4.33;75.04;97524.73;106015;1258;69811;-78
2023/03/13 01:13:48;;;;;;;5.50;4.00;;;;;;;4.35;75.03;97526.13;105979;1257;71420;-80
2023/03/13 01:16:17;;;;;;;4.30;3.30;;;;;;;4.37;74.81;97528.36;106023;1260;61227;-78
2023/03/13 01:18:45;;;;;;;5.70;3.50;;;;;;;4.37;74.97;97523.94;107547;1255;61171;-79
2023/03/13 01:21:12;;;;;;;4.50;3.60;;;;;;;4.39;75.05;97525.18;105863;1256;74634;-78
2023/03/13 01:23:38;;;;;;;4.70;3.20;;;;;;;4.41;75.01;97521.48;108931;1256;70045;-79
2023/03/13 01:26:06;;;;;;;11.70;5.80;;;;;;;4.45;75.26;97516.73;106158;1256;61296;-80
2023/03/13 01:28:32;;;;;;;6.70;4.00;;;;;;;4.47;75.37;97515.62;109239;1254;58887;-80
2023/03/13 01:30:59;;;;;;;6.40;4.60;;;;;;;4.49;75.20;97513.59;108744;1254;59305;-78
2023/03/13 01:33:25;;;;;;;7.10;4.80;;;;;;;4.53;75.42;97512.55;106268;1258;74556;-80
2023/03/13 01:35:59;;;;;;;8.20;4.10;;;;;;;4.56;75.43;97510.81;106026;1256;70815;-78
2023/03/13 01:38:26;;;;;;;7.00;4.50;;;;;;;4.58;75.29;97514.59;107624;1254;72004;-80
2023/03/13 01:40:53;;;;;;;4.20;2.90;;;;;;;4.58;75.35;97520.27;106268;1255;62280;-78
2023/03/13 01:43:20;;;;;;;5.00;2.80;;;;;;;4.59;75.58;97525.00;105986;1256;61279;-78
2023/03/13 01:46:00;;;;;;;7.90;3.60;;;;;;;4.62;75.69;97530.62;106029;1256;72722;-80
2023/03/13 01:48:34;;;;;;;9.20;3.30;;;;;;;4.64;75.66;97533.13;107425;1254;225295;-79
2023/03/13 01:51:03;;;;;;;5.10;3.20;;;;;;;4.66;75.46;97539.84;109261;1255;72586;-79
2023/03/13 01:53:30;;;;;;;4.00;3.00;;;;;;;4.70;75.88;97533.96;107700;1254;61204;-80
2023/03/13 01:55:57;;;;;;;3.20;2.30;;;;;;;4.71;76.06;97538.19;106974;1254;61338;-78
2023/03/13 01:58:23;;;;;;;6.20;2.90;;;;;;;4.74;75.76;97545.72;106011;1254;74514;-78
2023/03/13 02:00:49;;;;;;;5.70;3.40;;;;;;;4.76;75.99;97548.05;105877;1256;61372;-79
2023/03/13 02:03:17;;;;;;;5.30;3.10;;;;;;;4.77;76.03;97548.42;105857;1256;61247;-78
2023/03/13 02:05:43;;;;;;;6.50;4.70;;;;;;;4.77;76.07;97549.81;109135;1254;59059;-80
2023/03/13 02:08:13;;;;;;;5.00;3.10;;;;;;;4.79;76.27;97553.83;108238;1260;61210;-81
2023/03/13 02:10:47;;;;;;;8.20;3.60;;;;;;;4.80;76.23;97550.57;107859;1256;74652;-77
2023/03/13 02:13:15;;;;;;;4.70;2.90;;;;;;;4.83;75.83;97555.58;106030;1258;69976;-76
2023/03/13 02:15:41;;;;;;;6.80;3.60;;;;;;;4.83;76.13;97553.92;109251;1254;73074;-78
2023/03/13 02:18:08;;;;;;;5.20;3.00;;;;;;;4.84;76.22;97550.27;109250;1254;58929;-77
2023/03/13 02:20:34;;;;;;;5.50;3.20;;;;;;;4.84;76.28;97556.07;106403;1256;61360;-78
2023/03/13 02:23:13;;;;;;;5.90;4.10;;;;;;;4.88;76.30;97556.86;106032;1258;61784;-77
2023/03/13 02:25:50;;;;;;;6.70;3.90;;;;;;;4.88;76.64;97553.92;106005;1255;69877;-77
2023/03/13 02:28:24;;;;;;;6.00;3.80;;;;;;;4.94;76.57;97550.89;107393;1254;71476;-80
2023/03/13 02:30:52;;;;;;;6.20;4.40;;;;;;;4.93;76.68;97552.02;106176;1261;61275;-78
2023/03/13 02:33:18;;;;;;;6.50;4.00;;;;;;;4.92;76.73;97551.73;106028;1256;62143;-78
2023/03/13 02:35:44;;;;;;;7.80;3.50;;;;;;;4.90;76.91;97552.91;105844;1259;62019;-78
2023/03/13 02:38:14;;;;;;;6.40;4.10;;;;;;;4.91;76.83;97549.16;106013;1258;61336;-79
2023/03/13 02:40:42;;;;;;;10.70;4.00;;;;;;;4.92;77.25;97549.98;107581;1256;71404;-78
2023/03/13 02:43:11;;;;;;;7.90;3.80;;;;;;;4.91;77.63;97553.23;105999;1258;61271;-78
2023/03/13 02:45:38;;;;;;;5.30;3.90;;;;;;;4.92;77.84;97557.86;106047;1256;62284;-78
2023/03/13 02:48:04;;;;;;;5.80;4.10;;;;;;;4.92;78.18;97565.11;105967;1256;61257;-79
2023/03/13 02:50:31;;;;;;;4.60;3.70;;;;;;;4.94;78.07;97571.30;105993;1258;69937;-78
2023/03/13 02:53:00;;;;;;;8.90;5.80;;;;;;;4.94;78.01;97576.61;105971;1256;72369;-79
2023/03/13 02:55:31;;;;;;;7.40;4.40;;;;;;;4.94;78.41;97585.20;106009;1258;61147;-79
2023/03/13 02:57:58;;;;;;;7.90;3.70;;;;;;;4.95;78.72;97589.64;109236;1256;59123;-78
2023/03/13 03:00:25;;;;;;;8.50;4.30;;;;;;;4.97;78.74;97590.85;107315;1256;74590;-78
2023/03/13 03:02:53;;;;;;;6.20;3.60;;;;;;;4.97;78.84;97599.97;106020;1258;70586;-77
2023/03/13 03:05:20;;;;;;;5.60;4.20;;;;;;;4.97;79.46;97603.89;105951;1256;72677;-78
2023/03/13 03:07:48;;;;;;;6.10;4.50;;;;;;;4.98;79.57;97599.98;105981;1256;61152;-78
2023/03/13 03:10:15;;;;;;;9.40;4.60;;;;;;;4.98;79.79;97601.16;106033;1255;61206;-78
2023/03/13 03:12:42;;;;;;;5.50;3.60;;;;;;;4.98;79.96;97603.58;106032;1262;74884;-78
2023/03/13 03:15:09;;;;;;;6.30;4.10;;;;;;;4.99;79.84;97598.52;106032;1258;62253;-77
2023/03/13 03:17:35;;;;;;;10.90;5.40;;;;;;;4.99;80.19;97599.50;108708;1257;71740;-78
2023/03/13 03:20:06;;;;;;;7.40;4.00;;;;;;;5.00;80.36;97599.98;106717;1258;61220;-79
2023/03/13 03:22:33;;;;;;;8.50;4.70;;;;;;;4.99;80.35;97595.27;106057;1256;61344;-78
2023/03/13 03:25:00;;;;;;;8.70;4.80;;;;;;;5.00;80.31;97593.49;105984;1254;73823;-78
2023/03/13 03:27:26;;;;;;;8.50;4.40;;;;;;;5.00;80.49;97598.17;106008;1256;70881;-79
2023/03/13 03:29:53;;;;;;;7.80;5.00;;;;;;;5.00;80.39;97597.63;106540;1258;71997;-77
2023/03/13 03:32:20;;;;;;;6.90;5.00;;;;;;;4.99;80.97;97606.48;106068;1256;61265;-79
2023/03/13 03:34:46;;;;;;;6.60;4.30;;;;;;;4.99;80.99;97606.06;105998;1258;61311;-78
2023/03/13 03:37:12;;;;;;;5.50;3.80;;;;;;;4.99;81.22;97597.04;108721;1254;59104;-78
2023/03/13 03:39:39;;;;;;;7.10;3.80;;;;;;;5.01;81.32;97592.85;107329;1254;61296;-80
2023/03/13 03:42:05;;;;;;;6.60;3.80;;;;;;;5.02;81.28;97588.94;105978;1256;61280;-77
2023/03/13 03:44:32;;;;;;;6.10;3.50;;;;;;;4.98;81.98;97593.42;105953;1256;61337;-79
2023/03/13 03:46:58;;;;;;;6.40;4.30;;;;;;;5.00;81.96;97592.84;106001;1255;61222;-78
2023/03/13 03:49:24;;;;;;;4.70;3.70;;;;;;;5.00;82.04;97594.89;105972;1258;62014;-78
2023/03/13 03:51:51;;;;;;;7.10;3.10;;;;;;;4.98;82.68;97595.09;106011;1259;61337;-78
2023/03/13 03:54:17;;;;;;;5.40;3.80;;;;;;;4.98;82.84;97589.12;106022;1256;61339;-79
2023/03/13 03:56:44;;;;;;;6.30;4.30;;;;;;;4.95;82.87;97592.20;105979;1258;62393;-78
2023/03/13 03:59:10;;;;;;;5.60;3.60;;;;;;;4.92;83.80;97588.64;106049;1258;61172;-79
2023/03/13 04:01:37;;;;;;;8.70;4.70;;;;;;;4.91;83.64;97594.16;105985;1256;61377;-79
2023/03/13 04:04:03;;;;;;;6.00;4.20;;;;;;;4.89;83.46;97589.80;105984;1258;61322;-77
2023/03/13 04:06:29;;;;;;;8.00;4.50;;;;;;;4.88;83.54;97588.92;107273;1254;61226;-78
2023/03/13 04:08:56;;;;;;;7.60;4.40;;;;;;;4.87;83.68;97586.55;105995;1256;62408;-79
2023/03/13 04:11:22;;;;;;;16.00;6.60;;;;;;;4.88;84.10;97584.89;106005;1258;61254;-80
2023/03/13 04:13:49;;;;;;;5.10;3.40;;;;;;;4.89;83.86;97585.06;106045;1257;61278;-78
2023/03/13 04:16:15;;;;;;;13.60;8.60;;;;;;;4.91;84.25;97590.61;106037;1258;61287;-79
2023/03/13 04:18:41;;;;;;;16.90;11.50;;;;;;;4.90;84.31;97592.17;106032;1254;61339;-80
2023/03/13 04:21:08;;;;;;;11.30;6.80;;;;;;;4.90;84.17;97591.90;105949;1255;61273;-77
2023/03/13 04:23:34;;;;;;;9.70;6.00;;;;;;;4.90;84.07;97587.27;106013;1256;61244;-79
2023/03/13 04:26:00;;;;;;;6.40;4.40;;;;;;;4.90;84.41;97588.73;105989;1258;61370;-78
2023/03/13 04:28:27;;;;;;;7.20;4.50;;;;;;;4.89;84.38;97589.20;105961;1259;61257;-79
2023/03/13 04:30:56;;;;;;;8.50;4.50;;;;;;;4.91;84.59;97592.92;106009;1259;61262;-77
2023/03/13 04:33:23;;;;;;;7.80;5.90;;;;;;;4.92;84.51;97594.81;105959;1257;61311;-78
2023/03/13 04:35:50;;;;;;;9.50;6.10;;;;;;;4.94;84.94;97602.50;105987;1256;61225;-79
2023/03/13 04:38:16;;;;;;;8.40;5.10;;;;;;;4.96;84.64;97599.58;105988;1259;61259;-79
2023/03/13 04:40:42;;;;;;;6.40;4.60;;;;;;;4.96;84.72;97593.58;106016;1258;61798;-81
2023/03/13 04:43:09;;;;;;;9.90;7.30;;;;;;;4.97;84.66;97592.56;106075;1258;61573;-78
2023/03/13 04:45:35;;;;;;;8.30;5.00;;;;;;;4.98;84.90;97586.50;106113;1256;61357;-78
2023/03/13 04:48:02;;;;;;;10.80;4.90;;;;;;;4.98;85.07;97586.77;106036;1255;59393;-80
2023/03/13 04:50:28;;;;;;;9.10;5.10;;;;;;;5.01;85.53;97584.25;106004;1260;61337;-78
2023/03/13 04:52:55;;;;;;;11.60;7.00;;;;;;;5.04;85.55;97582.51;106084;1259;63057;-80
2023/03/13 04:55:21;;;;;;;8.50;5.30;;;;;;;5.08;85.94;97581.05;106830;1254;61422;-79
2023/03/13 04:57:47;;;;;;;5.90;3.30;;;;;;;5.14;86.04;97580.20;109195;1254;58946;-80
2023/03/13 05:00:14;;;;;;;8.40;5.20;;;;;;;5.20;86.04;97578.14;109265;1257;59165;-76
2023/03/13 05:02:40;;;;;;;9.10;4.80;;;;;;;5.25;86.50;97576.42;106199;1259;61362;-78
2023/03/13 05:05:07;;;;;;;8.50;4.80;;;;;;;5.25;86.48;97580.51;106030;1256;61149;-78
2023/03/13 05:07:33;;;;;;;11.80;6.30;;;;;;;5.30;86.39;97570.48;106072;1262;61554;-78
2023/03/13 05:10:00;;;;;;;9.80;5.40;;;;;;;5.33;86.50;97567.73;105938;1256;61327;-78
2023/03/13 05:12:26;;;;;;;13.10;5.80;;;;;;;5.36;86.59;97567.16;105968;1267;61251;-80
2023/03/13 05:14:53;;;;;;;9.70;5.60;;;;;;;5.37;86.35;97564.85;105977;1258;61151;-79
2023/03/13 05:17:19;;;;;;;13.10;5.80;;;;;;;5.38;86.35;97563.73;105924;1258;61243;-80
2023/03/13 05:19:45;;;;;;;7.90;5.50;;;;;;;5.39;86.33;97562.14;105938;1259;61375;-80
2023/03/13 05:22:12;;;;;;;8.70;5.80;;;;;;;5.39;86.01;97565.32;105963;1260;61283;-79
2023/03/13 05:24:38;;;;;;;7.50;5.00;;;;;;;5.38;86.23;97566.90;105990;1260;61314;-79
2023/03/13 05:27:05;;;;;;;8.90;4.10;;;;;;;5.39;86.04;97563.91;105860;1254;61039;-78
2023/03/13 05:29:31;;;;;;;10.70;5.80;;;;;;;5.39;86.19;97567.41;106114;1259;61261;-80
2023/03/13 05:31:58;;;;;;;10.60;5.60;;;;;;;5.39;86.23;97568.42;106421;1268;61411;-79
2023/03/13 05:34:24;;;;;;;9.20;5.20;;;;;;;5.39;86.07;97568.95;106397;1256;61257;-80
2023/03/13 05:36:50;;;;;;;8.90;5.30;;;;;;;5.38;86.17;97567.08;106425;1259;62245;-78
2023/03/13 05:39:17;;;;;;;15.60;8.30;;;;;;;5.38;86.46;97567.19;106492;1254;61365;-80
2023/03/13 05:41:43;;;;;;;18.10;8.70;;;;;;;5.41;86.65;97571.34;106502;1258;62280;-78
2023/03/13 05:44:10;;;;;;;14.90;6.50;;;;;;;5.42;86.59;97569.46;106536;1256;61247;-80
2023/03/13 05:46:36;;;;;;;12.70;6.50;;;;;;;5.46;86.48;97573.52;106513;1259;61262;-77
2023/03/13 05:49:02;;;;;;;9.30;5.70;;;;;;;5.52;86.42;97575.17;106565;1258;61333;-78
2023/03/13 05:51:29;;;;;;;13.40;5.90;;;;;;;5.52;86.90;97575.39;106659;1267;61357;-77
2023/03/13 05:53:55;;;;;;;13.30;7.00;;;;;;;5.56;86.69;97577.85;106100;1258;61768;-77
2023/03/13 05:56:22;;;;;;;10.80;5.60;;;;;;;5.61;86.51;97575.24;105925;1258;61317;-78
2023/03/13 05:58:48;;;;;;;8.20;5.00;;;;;;;5.66;86.74;97571.52;106099;1254;61219;-77
2023/03/13 06:01:14;;;;;;;11.30;6.30;;;;;;;5.73;86.49;97572.26;106044;1258;62354;-80
2023/03/13 06:03:41;;;;;;;7.30;5.00;;;;;;;5.78;86.00;97575.63;106044;1260;61193;-78
2023/03/13 06:06:07;;;;;;;16.90;9.00;;;;;;;5.80;85.84;97576.55;106170;1259;61276;-80
2023/03/13 06:08:34;;;;;;;15.30;10.30;;;;;;;5.81;85.67;97577.17;106095;1255;61136;-80
2023/03/13 06:11:01;;;;;;;17.10;7.70;;;;;;;5.82;85.37;97570.88;106102;1259;61423;-80
2023/03/13 06:13:27;;;;;;;14.00;8.60;;;;;;;5.83;84.91;97567.98;106104;1257;61324;-80
2023/03/13 06:15:55;;;;;;;12.80;7.30;;;;;;;5.82;84.77;97569.91;106164;1259;61357;-79
2023/03/13 06:18:21;;;;;;;19.10;7.70;;;;;;;5.81;84.87;97565.27;106028;1254;61209;-78
2023/03/13 06:20:48;;;;;;;13.50;8.00;;;;;;;5.79;85.03;97568.85;105926;1259;61340;-80
2023/03/13 06:23:15;;;;;;;21.00;8.50;;;;;;;5.78;84.94;97567.45;105947;1259;61126;-80
2023/03/13 06:25:46;;;;;;;12.80;6.90;;;;;;;5.83;84.90;97571.52;105978;1258;61813;-80
2023/03/13 06:28:12;;;;;;;14.30;6.60;;;;;;;5.87;84.83;97565.04;106090;1255;73358;-79
2023/03/13 06:30:39;;;;;;;15.50;7.70;;;;;;;5.96;84.90;97560.38;106115;1255;62250;-80
2023/03/13 06:33:05;;;;;;;14.90;5.90;;;;;;;6.09;84.83;97564.05;105962;1254;61276;-78
2023/03/13 06:35:31;;;;;;;14.50;7.20;;;;;;;6.20;84.62;97558.52;105980;1259;63513;-80
2023/03/13 06:37:58;;;;;;;9.50;4.70;;;;;;;6.37;84.44;97560.52;106087;1258;61266;-80
2023/03/13 06:40:24;;;;;;;10.30;5.20;;;;;;;6.52;83.71;97559.38;106178;1259;61350;-79
2023/03/13 06:42:51;;;;;;;13.50;6.40;;;;;;;6.63;83.37;97560.11;106163;1263;61317;-80
2023/03/13 06:45:17;;;;;;;9.80;5.00;;;;;;;6.78;83.05;97562.79;106104;1257;61269;-78
2023/03/13 06:47:43;;;;;;;15.20;6.40;;;;;;;6.87;82.91;97557.80;106132;1259;61426;-79
2023/03/13 06:50:10;;;;;;;12.00;5.80;;;;;;;6.99;82.22;97552.38;106510;1260;61304;-80
2023/03/13 06:52:36;;;;;;;10.30;5.10;;;;;;;7.10;82.11;97550.09;106587;1255;61349;-79
2023/03/13 06:55:04;;;;;;;9.60;4.90;;;;;;;7.19;81.88;97546.08;106570;1254;61353;-80
2023/03/13 06:57:30;;;;;;;10.10;5.00;;;;;;;7.30;81.88;97543.94;106473;1259;61231;-80
2023/03/13 06:59:57;;;;;;;10.80;6.30;;;;;;;7.39;81.06;97541.40;106617;1254;61307;-81
2023/03/13 07:02:23;;;;;;;15.90;8.10;;;;;;;7.50;81.03;97547.59;106625;1260;61346;-79
2023/03/13 07:04:50;;;;;;;14.10;4.30;;;;;;;7.61;80.52;97544.23;106741;1254;61359;-79
2023/03/13 07:07:16;;;;;;;10.60;5.00;;;;;;;7.82;79.84;97546.78;106557;1254;61229;-80
2023/03/13 07:09:43;;;;;;;12.40;5.80;;;;;;;8.05;78.77;97546.63;106128;1254;61329;-81
2023/03/13 07:12:09;;;;;;;14.30;7.50;;;;;;;8.33;78.41;97547.40;106048;1254;61333;-79
2023/03/13 07:14:35;;;;;;;18.30;10.00;;;;;;;8.97;77.91;97549.77;106620;1257;61337;-79
2023/03/13 07:17:02;;;;;;;18.20;8.90;;;;;;;9.75;78.51;97550.06;106646;1258;61273;-81
2023/03/13 07:19:28;;;;;;;15.60;7.90;;;;;;;10.30;77.13;97545.11;106560;1253;62277;-80
2023/03/13 07:21:55;;;;;;;18.30;7.30;;;;;;;10.57;77.27;97536.39;106848;1259;61324;-79
2023/03/13 07:24:22;;;;;;;17.20;7.20;;;;;;;11.09;75.23;97535.91;106251;1254;61107;-79
2023/03/13 07:26:49;;;;;;;11.20;5.10;;;;;;;11.91;75.17;97534.51;106224;1258;61350;-78
2023/03/13 07:29:15;;;;;;;14.20;6.10;;;;;;;12.17;71.38;97537.02;106247;1255;61437;-79
2023/03/13 07:31:41;;;;;;;21.10;7.50;;;;;;;12.74;68.60;97527.69;106256;1258;59870;-78
2023/03/13 07:34:08;;;;;;;10.80;6.30;;;;;;;13.19;69.51;97526.73;106144;1258;61205;-78
2023/03/13 07:36:35;;;;;;;10.80;5.40;;;;;;;13.46;70.48;97526.59;106139;1259;61300;-78
2023/03/13 07:39:01;;;;;;;22.60;5.50;;;;;;;13.81;67.23;97519.98;106160;1256;61243;-79
2023/03/13 07:41:28;;;;;;;11.30;4.70;;;;;;;14.40;65.85;97507.81;106145;1257;61136;-78
2023/03/13 07:43:54;;;;;;;9.40;4.30;;;;;;;15.07;65.47;97508.77;106068;1261;61257;-78
2023/03/13 07:46:21;;;;;;;12.90;5.20;;;;;;;15.62;64.16;97504.91;106169;1266;61318;-80
2023/03/13 07:48:47;;;;;;;10.40;4.80;;;;;;;16.10;58.33;97494.84;106151;1259;61339;-80
2023/03/13 07:51:16;;;;;;;11.40;4.50;;;;;;;16.56;54.17;97492.22;106218;1254;59205;-80
2023/03/13 07:53:44;;;;;;;6.50;3.70;;;;;;;16.75;49.97;97489.77;107481;1254;74653;-80
2023/03/13 07:56:12;;;;;;;11.80;4.90;;;;;;;16.81;48.56;97491.88;106189;1254;70303;-79
2023/03/13 07:58:39;;;;;;;6.90;3.00;;;;;;;17.29;53.26;97497.81;106547;1254;71798;-80
2023/03/13 08:01:15;;;;;;;10.80;3.10;;;;;;;16.83;50.71;97495.19;106176;1260;61330;-78
2023/03/13 08:03:43;;;;;;;7.90;4.00;;;;;;;16.25;51.82;97493.77;106275;1254;61288;-79
2023/03/13 08:06:13;;;;;;;9.60;3.40;;;;;;;16.27;52.57;97493.48;106094;1259;75783;-78
2023/03/13 08:08:40;;;;;;;12.00;4.80;;;;;;;16.98;52.33;97487.83;106131;1254;70586;-80
2023/03/13 08:11:14;;;;;;;8.20;4.90;;;;;;;17.46;49.27;97493.27;106513;1256;61154;-80
2023/03/13 08:13:40;;;;;;;10.60;5.30;;;;;;;17.57;45.82;97498.05;106432;1255;61355;-77
2023/03/13 08:16:12;;;;;;;9.90;5.10;;;;;;;18.29;48.88;97484.52;106272;1254;61256;-77
2023/03/13 08:18:40;;;;;;;17.50;14.10;;;;;;;18.95;46.02;97482.97;106412;1259;74549;-79
2023/03/13 08:21:08;;;;;;;19.90;15.40;;;;;;;19.06;43.31;97483.69;107129;1257;71096;-80
2023/03/13 08:23:35;;;;;;;6.80;3.10;;;;;;;19.03;43.15;97481.02;109122;1254;72616;-79
2023/03/13 08:26:06;;;;;;;8.10;4.10;;;;;;;19.07;42.46;97471.40;108785;1256;59550;-80
2023/03/13 08:28:32;;;;;;;19.80;10.60;;;;;;;19.52;42.95;97469.27;106332;1254;61280;-78
2023/03/13 08:31:11;;;;;;;9.80;4.20;;;;;;;20.34;40.84;97464.89;106443;1255;74257;-79
2023/03/13 08:33:39;;;;;;;9.20;4.70;;;;;;;20.12;40.27;97467.42;107010;1254;69899;-78
2023/03/13 08:36:13;;;;;;;12.50;3.80;;;;;;;20.14;40.97;97476.05;106913;1254;73080;-79
2023/03/13 08:38:46;;;;;;;6.40;3.10;;;;;;;20.39;39.26;97470.74;106630;1254;61289;-80
2023/03/13 08:41:13;;;;;;;9.40;4.20;;;;;;;20.87;39.42;97466.21;106795;1257;61145;-80
2023/03/13 08:43:40;;;;;;;7.80;3.20;;;;;;;21.19;38.84;97460.89;106896;1256;73684;-81
2023/03/13 08:46:06;;;;;;;5.60;2.60;;;;;;;21.17;37.64;97460.39;106836;1254;70888;-82
2023/03/13 08:48:33;;;;;;;8.80;3.70;;;;;;;21.35;36.85;97459.34;106828;1259;61559;-82
2023/03/13 08:51:12;;;;;;;8.20;3.20;;;;;;;21.27;35.93;97449.98;106822;1254;61257;-80
2023/03/13 08:53:40;;;;;;;7.10;3.40;;;;;;;21.15;35.76;97436.26;106926;1255;61152;-78
2023/03/13 08:56:08;;;;;;;11.10;2.80;;;;;;;21.18;35.26;97427.60;106198;1257;74553;-79
2023/03/13 08:58:34;;;;;;;6.60;3.00;;;;;;;21.15;34.92;97431.87;106175;1254;71171;-78
2023/03/13 09:01:11;;;;;;;6.90;2.70;;;;;;;21.06;35.47;97427.90;106221;1254;71760;-79
2023/03/13 09:03:37;;;;;;;8.40;2.80;;;;;;;22.14;34.81;97426.45;106167;1254;61238;-80
2023/03/13 09:06:04;;;;;;;8.50;3.10;;;;;;;22.39;33.17;97414.14;106173;1255;61260;-78
2023/03/13 09:08:31;;;;;;;6.70;3.00;;;;;;;20.58;34.83;97407.27;106238;1254;73441;-80
2023/03/13 09:10:59;;;;;;;7.70;2.20;;;;;;;18.95;37.72;97410.84;106242;1254;70930;-79
2023/03/13 09:13:26;;;;;;;13.40;4.50;;;;;;;17.80;38.73;97400.03;106275;1254;72663;-77
2023/03/13 09:16:06;;;;;;;9.10;3.10;;;;;;;16.68;40.54;97404.77;106239;1258;61260;-77
2023/03/13 09:18:32;;;;;;;13.40;7.00;;;;;;;15.84;42.12;97392.97;106114;1260;61133;-78
2023/03/13 09:20:59;;;;;;;12.40;4.00;;;;;;;15.09;43.90;97403.68;106414;1254;74851;-79
2023/03/13 09:23:25;;;;;;;8.60;2.90;;;;;;;14.35;45.86;97386.02;106581;1254;61084;-79
2023/03/13 09:25:53;;;;;;;7.20;1.90;;;;;;;14.12;46.61;97394.54;106269;1261;72868;-78
2023/03/13 09:28:19;;;;;;;10.40;3.00;;;;;;;13.81;47.73;97387.52;106370;1254;61305;-80
2023/03/13 09:30:48;;;;;;;23.70;5.00;;;;;;;13.60;48.30;97390.89;106269;1254;61177;-79
2023/03/13 09:33:15;;;;;;;5.80;2.60;;;;;;;13.36;49.32;97382.55;106339;1254;74149;-78
2023/03/13 09:35:42;;;;;;;7.80;3.20;;;;;;;13.27;49.62;97384.48;107135;1260;70051;-78
2023/03/13 09:38:09;;;;;;;9.80;3.40;;;;;;;13.11;50.67;97391.20;106097;1254;72556;-78
2023/03/13 09:40:40;;;;;;;6.10;2.60;;;;;;;13.10;50.85;97380.65;106055;1253;61353;-80
2023/03/13 09:43:17;;;;;;;7.30;3.00;;;;;;;13.13;50.80;97376.14;106330;1254;61213;-80
2023/03/13 09:45:45;;;;;;;14.20;4.80;;;;;;;13.28;50.87;97374.44;106207;1259;73632;-80
2023/03/13 09:48:32;;;;;;;8.60;2.70;;;;;;;13.39;50.57;97369.54;106015;1254;71480;-78
2023/03/13 09:51:25;;;;;;;5.30;2.20;;;;;;;13.32;50.79;97353.88;106600;1254;71891;-80
2023/03/13 09:54:05;;;;;;;6.60;2.90;;;;;;;13.49;50.77;97348.79;106208;1254;61293;-80
2023/03/13 09:56:39;;;;;;;9.30;4.60;;;;;;;13.66;50.46;97345.88;106591;1254;61191;-78
2023/03/13 09:59:18;;;;;;;8.50;2.80;;;;;;;13.64;50.46;97332.27;107287;1260;73484;-80
2023/03/13 10:01:45;;;;;;;;;;;;;;;13.66;50.37;97327.96;106351;1254;71118;-80
2023/03/13 10:04:18;;;;;;;11.20;2.90;;;;;;;13.68;50.38;97325.38;106396;1254;72571;-80
2023/03/13 10:06:45;;;;;;;5.50;2.20;;;;;;;13.83;49.90;97320.42;106205;1255;63013;-78
2023/03/13 10:09:30;;;;;;;4.50;2.10;;;;;;;14.06;49.85;97319.44;106106;1258;61231;-80
2023/03/13 10:12:15;;;;;;;6.00;2.30;;;;;;;14.28;48.76;97320.15;106237;1258;74517;-78
2023/03/13 10:14:45;;;;;;;5.30;1.90;;;;;;;14.41;47.05;97313.59;106213;1254;70718;-82
2023/03/13 10:17:21;;;;;;;5.30;1.90;;;;;;;14.37;46.58;97301.17;106617;1253;71481;-79
2023/03/13 10:19:54;;;;;;;26.00;2.90;;;;;;;14.56;45.97;97301.59;106609;1260;61286;-78
2023/03/13 10:22:24;;;;;;;7.70;2.60;;;;;;;14.85;45.30;97305.70;106728;1260;61138;-79
2023/03/13 10:24:58;;;;;;;6.60;1.80;;;;;;;15.05;45.09;97311.55;106570;1254;73530;-78
2023/03/13 10:27:24;;;;;;;18.20;2.40;;;;;;;15.21;44.35;97319.30;106122;1254;71221;-78
2023/03/13 10:29:51;;;;;;;7.70;2.70;;;;;;;15.37;43.78;97313.50;106107;1254;70829;-80
2023/03/13 10:32:17;;;;;;;12.00;2.60;;;;;;;15.44;44.29;97305.04;106208;1258;61264;-79
2023/03/13 10:34:59;;;;;;;7.00;2.20;;;;;;;15.65;43.60;97301.80;106165;1257;61366;-78
2023/03/13 10:37:28;;;;;;;7.90;2.60;;;;;;;15.79;42.43;97309.14;106136;1254;73523;-80
2023/03/13 10:40:12;;;;;;;3.90;2.60;;;;;;;15.68;42.61;97297.09;106252;1257;70541;-80
2023/03/13 10:42:42;;;;;;;6.50;2.60;;;;;;;15.63;42.55;97298.81;106270;1257;71788;-79
2023/03/13 10:45:16;;;;;;;6.90;2.30;;;;;;;15.57;42.86;97296.70;106406;1254;61157;-81
2023/03/13 10:47:43;;;;;;;5.60;2.30;;;;;;;15.56;42.99;97293.92;109259;1253;59118;-80
2023/03/13 10:50:21;;;;;;;4.80;1.70;;;;;;;15.50;42.92;97299.14;109291;1253;74484;-81
2023/03/13 10:52:47;;;;;;;5.80;1.60;;;;;;;15.35;43.14;97291.24;106729;1254;71525;-78
2023/03/13 10:55:21;;;;;;;7.40;1.50;;;;;;;15.17;43.69;97288.02;106277;1257;72103;-80
2023/03/13 10:57:59;;;;;;;6.60;2.10;;;;;;;15.06;43.75;97287.79;107461;1254;61270;-78
2023/03/13 11:00:37;;;;;;;6.50;2.10;;;;;;;14.96;43.81;97289.98;106216;1257;60319;-79
2023/03/13 11:03:17;;;;;;;7.80;2.80;;;;;;;14.90;43.96;97284.64;106285;1255;75936;-78
2023/03/13 11:05:54;;;;;;;6.90;1.80;;;;;;;14.82;44.25;97281.96;106089;1257;69863;-79
2023/03/13 11:08:23;;;;;;;4.80;1.70;;;;;;;14.73;43.57;97276.91;106162;1254;72637;-79
2023/03/13 11:10:56;;;;;;;8.90;3.80;;;;;;;14.62;43.54;97272.06;106445;1254;61263;-78
2023/03/13 11:13:36;;;;;;;8.10;3.10;;;;;;;14.58;43.29;97278.73;106769;1254;61324;-77
2023/03/13 11:16:30;;;;;;;9.00;4.60;;;;;;;14.59;42.66;97285.04;106450;1254;74165;-78
2023/03/13 11:19:12;;;;;;;1.90;1.20;;;;;;;14.54;41.85;97282.78;106142;1259;71102;-79
2023/03/13 11:21:45;;;;;;;3.50;1.40;;;;;;;14.46;41.78;97276.66;106136;1254;70399;-77
2023/03/13 11:24:27;;;;;;;9.60;3.70;;;;;;;14.45;42.22;97278.77;106325;1254;61272;-77
2023/03/13 11:27:09;;;;;;;5.80;1.90;;;;;;;14.53;42.54;97269.58;106167;1254;61253;-78
2023/03/13 11:30:13;;;;;;;3.60;1.90;;;;;;;14.73;42.41;97266.39;106125;1254;73428;-79
2023/03/13 11:32:41;;;;;;;5.10;2.40;;;;;;;15.08;41.82;97268.95;107307;1254;71020;-80
2023/03/13 11:35:22;;;;;;;6.50;2.10;;;;;;;15.23;41.57;97260.00;106694;1253;72509;-79